createdAt,value
2023-01-22T00:00:01.611Z,33.65
2023-01-22T00:02:28.065Z,29.30
2023-01-22T00:04:54.379Z,29.88
2023-01-22T00:07:20.702Z,31.33
2023-01-22T00:09:46.995Z,27.67
2023-01-22T00:12:13.346Z,29.67
2023-01-22T00:14:39.729Z,27.27
2023-01-22T00:17:06.050Z,27.95
2023-01-22T00:19:32.356Z,33.35
2023-01-22T00:21:58.667Z,33.63
2023-01-22T00:24:25.021Z,33.78
2023-01-22T00:26:51.302Z,36.92
2023-01-22T00:29:17.609Z,38.17
2023-01-22T00:31:44.037Z,35.33
2023-01-22T00:34:10.544Z,39.80
2023-01-22T00:36:36.864Z,43.20
2023-01-22T00:39:03.192Z,39.60
2023-01-22T00:41:29.567Z,44.55
2023-01-22T00:43:55.856Z,47.80
2023-01-22T00:46:22.260Z,44.13
2023-01-22T00:48:48.599Z,47.50
2023-01-22T00:51:15.703Z,43.13
2023-01-22T00:53:42.954Z,48.92
2023-01-22T00:56:10.414Z,47.17
2023-01-22T00:58:37.101Z,49.40
2023-01-22T01:01:04.626Z,45.00
2023-01-22T01:03:31.809Z,50.20
2023-01-22T01:06:02.653Z,52.33
2023-01-22T01:08:31.321Z,52.95
2023-01-22T01:11:04.288Z,52.85
2023-01-22T01:13:33.919Z,55.70
2023-01-22T01:16:11.149Z,53.10
2023-01-22T01:18:37.881Z,50.05
2023-01-22T01:21:04.360Z,54.60
2023-01-22T01:23:30.971Z,49.30
2023-01-22T01:26:01.564Z,53.40
2023-01-22T01:28:27.878Z,51.13
2023-01-22T01:30:54.784Z,54.70
2023-01-22T01:33:22.831Z,53.53
2023-01-22T01:35:49.287Z,46.72
2023-01-22T01:38:15.750Z,45.85
2023-01-22T01:40:43.991Z,45.95
2023-01-22T01:43:17.147Z,49.63
2023-01-22T01:45:43.947Z,45.20
2023-01-22T01:48:35.199Z,49.72
2023-01-22T01:51:11.163Z,44.80
2023-01-22T01:53:39.226Z,48.22
2023-01-22T01:56:10.737Z,51.38
2023-01-22T01:58:45.961Z,50.47
2023-01-22T02:01:17.317Z,50.78
2023-01-22T02:03:45.970Z,49.30
2023-01-22T02:06:17.317Z,52.58
2023-01-22T02:08:48.804Z,46.67
2023-01-22T02:11:16.555Z,49.72
2023-01-22T02:13:51.524Z,44.13
2023-01-22T02:16:18.399Z,45.38
2023-01-22T02:18:44.808Z,47.50
2023-01-22T02:21:29.584Z,43.22
2023-01-22T02:23:56.212Z,41.55
2023-01-22T02:26:22.521Z,45.08
2023-01-22T02:28:48.872Z,45.05
2023-01-22T02:31:15.530Z,44.55
2023-01-22T02:33:41.863Z,43.03
2023-01-22T02:36:08.427Z,44.70
2023-01-22T02:38:34.793Z,43.83
2023-01-22T02:41:01.172Z,43.47
2023-01-22T02:43:27.527Z,46.10
2023-01-22T02:45:54.422Z,46.15
2023-01-22T02:48:20.794Z,37.13
2023-01-22T02:50:47.186Z,40.47
2023-01-22T02:53:13.569Z,35.83
2023-01-22T02:55:39.926Z,36.58
2023-01-22T02:58:06.451Z,38.20
2023-01-22T03:00:33.451Z,37.85
2023-01-22T03:03:01.780Z,34.05
2023-01-22T03:05:28.076Z,34.58
2023-01-22T03:07:54.378Z,36.22
2023-01-22T03:10:21.332Z,32.10
2023-01-22T03:12:48.405Z,32.15
2023-01-22T03:15:14.790Z,33.17
2023-01-22T03:17:41.197Z,30.90
2023-01-22T03:20:08.462Z,35.72
2023-01-22T03:22:40.565Z,36.30
2023-01-22T03:25:07.210Z,32.33
2023-01-22T03:27:34.363Z,35.47
2023-01-22T03:30:00.688Z,31.45
2023-01-22T03:32:27.068Z,33.17
2023-01-22T03:34:58.065Z,34.78
2023-01-22T03:37:25.158Z,34.90
2023-01-22T03:39:53.461Z,34.45
2023-01-22T03:42:19.921Z,32.85
2023-01-22T03:44:47.253Z,31.52
2023-01-22T03:47:18.173Z,35.38
2023-01-22T03:49:44.659Z,30.80
2023-01-22T03:52:11.426Z,33.35
2023-01-22T03:54:38.080Z,32.00
2023-01-22T03:57:05.457Z,31.73
2023-01-22T03:59:31.798Z,32.40
2023-01-22T04:01:58.175Z,31.38
2023-01-22T04:04:24.587Z,31.25
2023-01-22T04:06:50.906Z,29.45
2023-01-22T04:09:17.374Z,32.97
2023-01-22T04:11:43.681Z,29.27
2023-01-22T04:14:09.966Z,27.92
2023-01-22T04:16:36.518Z,31.65
2023-01-22T04:19:02.925Z,32.65
2023-01-22T04:21:29.297Z,29.55
2023-01-22T04:23:55.627Z,28.73
2023-01-22T04:26:22.072Z,35.05
2023-01-22T04:28:48.368Z,33.22
2023-01-22T04:31:14.763Z,30.05
2023-01-22T04:33:41.136Z,32.13
2023-01-22T04:36:07.553Z,35.42
2023-01-22T04:38:33.866Z,33.50
2023-01-22T04:41:00.189Z,28.63
2023-01-22T04:43:26.491Z,32.85
2023-01-22T04:45:52.817Z,34.72
2023-01-22T04:48:19.192Z,29.38
2023-01-22T04:50:46.450Z,28.88
2023-01-22T04:53:13.244Z,30.73
2023-01-22T04:55:39.575Z,28.60
2023-01-22T04:58:05.906Z,30.90
2023-01-22T05:00:32.213Z,29.95
2023-01-22T05:03:00.393Z,28.10
2023-01-22T05:05:27.878Z,32.00
2023-01-22T05:07:54.430Z,31.50
2023-01-22T05:10:21.296Z,31.65
2023-01-22T05:12:48.572Z,30.08
2023-01-22T05:15:23.519Z,31.35
2023-01-22T05:17:51.417Z,32.05
2023-01-22T05:20:18.247Z,35.47
2023-01-22T05:22:45.100Z,32.85
2023-01-22T05:25:11.564Z,30.52
2023-01-22T05:27:37.973Z,30.83
2023-01-22T05:30:05.811Z,29.40
2023-01-22T05:32:32.100Z,27.27
2023-01-22T05:34:58.415Z,27.30
2023-01-22T05:37:24.738Z,28.90
2023-01-22T05:39:51.036Z,29.58
2023-01-22T05:42:17.423Z,29.80
2023-01-22T05:44:43.793Z,30.75
2023-01-22T05:47:12.778Z,30.05
2023-01-22T05:49:39.291Z,28.63
2023-01-22T05:52:05.612Z,30.98
2023-01-22T05:54:32.068Z,31.45
2023-01-22T05:56:58.385Z,30.42
2023-01-22T05:59:24.669Z,29.30
2023-01-22T06:01:50.967Z,29.73
2023-01-22T06:04:17.261Z,31.08
2023-01-22T06:06:43.568Z,29.52
2023-01-22T06:09:12.350Z,31.35
2023-01-22T06:11:38.653Z,32.53
2023-01-22T06:14:05.023Z,32.63
2023-01-22T06:16:31.311Z,31.98
2023-01-22T06:18:57.634Z,31.92
2023-01-22T06:21:23.943Z,31.77
2023-01-22T06:23:50.241Z,34.22
2023-01-22T06:26:16.548Z,35.25
2023-01-22T06:28:42.861Z,34.38
2023-01-22T06:31:09.345Z,37.35
2023-01-22T06:33:37.453Z,35.42
2023-01-22T06:36:05.113Z,34.92
2023-01-22T06:38:31.676Z,38.95
2023-01-22T06:40:59.938Z,36.53
2023-01-22T06:43:27.477Z,44.40
2023-01-22T06:45:54.745Z,35.47
2023-01-22T06:48:21.370Z,39.42
2023-01-22T06:50:47.803Z,37.60
2023-01-22T06:53:14.166Z,38.45
2023-01-22T06:55:40.520Z,39.28
2023-01-22T06:58:06.828Z,35.60
2023-01-22T07:00:33.228Z,40.83
2023-01-22T07:02:59.540Z,39.55
2023-01-22T07:05:25.894Z,41.70
2023-01-22T07:07:55.020Z,38.83
2023-01-22T07:10:22.038Z,42.33
2023-01-22T07:12:53.676Z,41.05
2023-01-22T07:15:19.987Z,41.13
2023-01-22T07:17:53.641Z,41.20
2023-01-22T07:20:21.958Z,43.15
2023-01-22T07:22:48.437Z,46.00
2023-01-22T07:25:14.860Z,44.78
2023-01-22T07:27:41.174Z,40.13
2023-01-22T07:30:08.103Z,43.80
2023-01-22T07:32:35.089Z,43.72
2023-01-22T07:35:01.475Z,45.92
2023-01-22T07:37:27.777Z,42.75
2023-01-22T07:39:54.087Z,42.67
2023-01-22T07:42:20.376Z,40.90
2023-01-22T07:44:46.687Z,42.97
2023-01-22T07:47:12.994Z,42.38
2023-01-22T07:49:39.310Z,52.00
2023-01-22T07:52:05.599Z,39.40
2023-01-22T07:54:31.920Z,41.38
2023-01-22T07:56:58.227Z,41.80
2023-01-22T07:59:24.610Z,43.00
2023-01-22T08:01:50.967Z,39.88
2023-01-22T08:04:17.291Z,43.67
2023-01-22T08:06:43.605Z,40.92
2023-01-22T08:09:09.924Z,40.40
2023-01-22T08:11:36.240Z,41.03
2023-01-22T08:14:02.594Z,41.72
2023-01-22T08:16:29.278Z,42.88
2023-01-22T08:18:55.583Z,45.33
2023-01-22T08:21:21.911Z,44.53
2023-01-22T08:23:49.328Z,47.90
2023-01-22T08:26:16.026Z,47.17
2023-01-22T08:28:42.334Z,47.65
2023-01-22T08:31:16.328Z,50.38
2023-01-22T08:33:49.233Z,51.40
2023-01-22T08:36:15.532Z,50.45
2023-01-22T08:38:41.915Z,51.05
2023-01-22T08:41:08.205Z,46.80
2023-01-22T08:43:34.521Z,46.03
2023-01-22T08:46:00.859Z,41.72
2023-01-22T08:48:27.243Z,43.78
2023-01-22T08:50:53.576Z,42.40
2023-01-22T08:53:19.887Z,49.38
2023-01-22T08:55:49.949Z,43.22
2023-01-22T08:58:16.332Z,53.80
2023-01-22T09:00:42.676Z,57.85
2023-01-22T09:03:09.065Z,48.03
2023-01-22T09:05:39.248Z,55.03
2023-01-22T09:08:05.905Z,46.45
2023-01-22T09:10:32.200Z,48.20
2023-01-22T09:12:59.502Z,43.70
2023-01-22T09:15:26.306Z,40.42
2023-01-22T09:17:52.851Z,38.45
2023-01-22T09:20:19.399Z,35.38
2023-01-22T09:22:46.796Z,37.72
2023-01-22T09:25:13.345Z,40.33
2023-01-22T09:27:39.633Z,34.80
2023-01-22T09:30:06.536Z,35.55
2023-01-22T09:32:32.827Z,34.40
2023-01-22T09:34:59.191Z,34.80
2023-01-22T09:37:25.488Z,36.53
2023-01-22T09:39:51.855Z,37.55
2023-01-22T09:42:33.668Z,30.33
2023-01-22T09:45:07.171Z,32.88
2023-01-22T09:47:47.528Z,29.48
2023-01-22T09:50:23.404Z,33.67
2023-01-22T09:52:52.320Z,34.78
2023-01-22T09:55:22.458Z,33.42
2023-01-22T09:57:51.616Z,40.33
2023-01-22T10:00:23.628Z,35.00
2023-01-22T10:03:01.060Z,39.70
2023-01-22T10:05:33.151Z,39.35
2023-01-22T10:08:22.104Z,39.92
2023-01-22T10:10:48.646Z,38.97
2023-01-22T10:13:34.520Z,38.92
2023-01-22T10:16:01.820Z,36.40
2023-01-22T10:18:46.797Z,41.33
2023-01-22T10:21:43.884Z,42.92
2023-01-22T10:24:11.072Z,54.58
2023-01-22T10:26:40.577Z,48.78
2023-01-22T10:29:10.098Z,42.58
2023-01-22T10:31:39.541Z,44.28
2023-01-22T10:34:16.699Z,51.25
2023-01-22T10:36:50.152Z,46.60
2023-01-22T10:39:17.617Z,40.90
2023-01-22T10:41:45.955Z,41.92
2023-01-22T10:44:24.131Z,36.65
2023-01-22T10:46:51.455Z,39.72
2023-01-22T10:49:21.635Z,41.92
2023-01-22T10:51:54.962Z,41.20
2023-01-22T10:54:23.207Z,35.90
2023-01-22T10:56:50.790Z,36.58
2023-01-22T10:59:21.822Z,34.95
2023-01-22T11:01:50.481Z,38.90
2023-01-22T11:04:22.883Z,35.50
2023-01-22T11:07:04.342Z,39.40
2023-01-22T11:09:59.449Z,37.58
2023-01-22T11:12:49.384Z,38.88
2023-01-22T11:15:24.599Z,47.40
2023-01-22T11:17:54.110Z,41.08
2023-01-22T11:20:28.169Z,42.58
2023-01-22T11:23:22.428Z,42.92
2023-01-22T11:26:09.606Z,39.83
2023-01-22T11:28:58.243Z,39.10
2023-01-22T11:31:56.706Z,41.85
2023-01-22T11:34:40.712Z,42.08
2023-01-22T11:37:16.344Z,39.28
2023-01-22T11:40:03.618Z,44.70
2023-01-22T11:42:49.748Z,39.60
2023-01-22T11:45:19.018Z,40.45
2023-01-22T11:48:09.975Z,39.22
2023-01-22T11:50:48.895Z,36.42
2023-01-22T11:53:41.615Z,35.42
2023-01-22T11:56:50.410Z,40.75
2023-01-22T11:59:47.056Z,41.53
2023-01-22T12:02:38.500Z,46.22
2023-01-22T12:05:23.976Z,45.35
2023-01-22T12:08:02.430Z,45.25
2023-01-22T12:10:55.027Z,42.40
2023-01-22T12:13:35.451Z,41.45
2023-01-22T12:16:10.411Z,39.90
2023-01-22T12:18:54.537Z,42.85
2023-01-22T12:21:40.572Z,45.50
2023-01-22T12:24:17.346Z,43.80
2023-01-22T12:26:59.245Z,45.67
2023-01-22T12:29:34.550Z,50.67
2023-01-22T12:32:09.860Z,47.38
2023-01-22T12:34:49.165Z,56.85
2023-01-22T12:37:19.901Z,54.08
2023-01-22T12:39:57.885Z,52.60
2023-01-22T12:42:37.349Z,46.53
2023-01-22T12:45:17.214Z,50.25
2023-01-22T12:47:46.413Z,55.85
2023-01-22T12:50:18.643Z,47.75
2023-01-22T12:52:45.274Z,52.15
2023-01-22T12:55:29.264Z,62.78
2023-01-22T12:57:56.010Z,44.08
2023-01-22T13:00:27.428Z,47.30
2023-01-22T13:02:53.761Z,53.00
2023-01-22T13:05:25.911Z,52.33
2023-01-22T13:08:27.666Z,54.17
2023-01-22T13:11:07.060Z,58.75
2023-01-22T13:13:46.722Z,57.38
2023-01-22T13:16:16.125Z,68.57
2023-01-22T13:18:49.983Z,55.08
2023-01-22T13:21:23.268Z,62.05
2023-01-22T13:23:50.360Z,55.75
2023-01-22T13:26:22.612Z,59.75
2023-01-22T13:28:51.995Z,55.17
2023-01-22T13:31:18.585Z,57.40
2023-01-22T13:33:56.686Z,63.35
2023-01-22T13:36:22.986Z,67.57
2023-01-22T13:38:57.910Z,70.72
2023-01-22T13:41:32.715Z,63.40
2023-01-22T13:46:26.757Z,62.08
2023-01-22T13:49:10.643Z,70.38
2023-01-22T13:51:38.027Z,64.38
2023-01-22T13:54:05.441Z,70.60
2023-01-22T13:56:31.804Z,72.10
2023-01-22T13:59:18.281Z,75.53
2023-01-22T14:01:44.820Z,83.57
2023-01-22T14:04:36.808Z,81.80
2023-01-22T14:07:04.807Z,82.57
2023-01-22T14:09:34.758Z,71.72
2023-01-22T14:12:20.052Z,80.85
2023-01-22T14:14:47.530Z,76.75
2023-01-22T14:17:25.032Z,70.85
2023-01-22T14:19:51.872Z,64.60
2023-01-22T14:22:18.199Z,67.43
2023-01-22T14:24:44.527Z,64.15
2023-01-22T14:27:10.907Z,59.63
2023-01-22T14:29:37.268Z,53.33
2023-01-22T14:32:03.935Z,58.50
2023-01-22T14:34:30.242Z,63.88
2023-01-22T14:36:56.556Z,50.70
2023-01-22T14:39:22.890Z,59.20
2023-01-22T14:41:49.573Z,65.55
2023-01-22T14:44:16.370Z,60.20
2023-01-22T14:46:42.681Z,62.97
2023-01-22T14:49:09.035Z,54.28
2023-01-22T14:51:35.342Z,58.03
2023-01-22T14:54:01.707Z,53.55
2023-01-22T14:56:28.007Z,48.58
2023-01-22T14:58:54.334Z,59.45
2023-01-22T15:01:22.439Z,47.38
2023-01-22T15:03:48.851Z,51.22
2023-01-22T15:06:15.219Z,59.50
2023-01-22T15:08:41.618Z,61.03
2023-01-22T15:11:08.036Z,55.38
2023-01-22T15:13:34.455Z,60.67
2023-01-22T15:16:08.902Z,55.92
2023-01-22T15:18:36.862Z,61.13
2023-01-22T15:21:04.584Z,60.97
2023-01-22T15:23:31.934Z,58.78
2023-01-22T15:26:00.222Z,69.97
2023-01-22T15:28:27.032Z,84.30
2023-01-22T15:30:53.914Z,70.50
2023-01-22T15:33:20.316Z,70.50
2023-01-22T15:35:46.618Z,79.75
2023-01-22T15:38:12.894Z,80.85
2023-01-22T15:40:39.260Z,83.45
2023-01-22T15:43:05.759Z,101.53
2023-01-22T15:45:32.095Z,114.68
2023-01-22T15:47:58.450Z,95.80
2023-01-22T15:50:24.955Z,86.55
2023-01-22T15:52:55.661Z,112.75
2023-01-22T15:55:21.965Z,91.75
2023-01-22T15:57:48.278Z,93.15
2023-01-22T16:00:14.966Z,105.05
2023-01-22T16:02:41.438Z,90.30
2023-01-22T16:05:08.178Z,89.43
2023-01-22T16:07:34.490Z,100.80
2023-01-22T16:10:00.808Z,100.45
2023-01-22T16:12:27.096Z,87.68
2023-01-22T16:14:53.396Z,90.93
2023-01-22T16:17:19.716Z,89.40
2023-01-22T16:19:46.294Z,84.00
2023-01-22T16:22:12.586Z,95.95
2023-01-22T16:24:38.897Z,80.03
2023-01-22T16:27:05.217Z,85.85
2023-01-22T16:29:31.752Z,82.65
2023-01-22T16:31:58.073Z,89.38
2023-01-22T16:34:24.376Z,57.88
2023-01-22T16:36:50.715Z,61.60
2023-01-22T16:39:22.736Z,71.75
2023-01-22T16:41:50.875Z,70.45
2023-01-22T16:44:19.781Z,76.15
2023-01-22T16:46:48.720Z,74.82
2023-01-22T16:49:20.917Z,69.88
2023-01-22T16:51:49.733Z,67.78
2023-01-22T16:54:36.990Z,70.00
2023-01-22T16:57:05.654Z,88.22
2023-01-22T16:59:34.108Z,93.20
2023-01-22T17:02:03.934Z,73.03
2023-01-22T17:04:31.027Z,78.80
2023-01-22T17:06:59.402Z,83.85
2023-01-22T17:09:30.534Z,80.05
2023-01-22T17:12:02.124Z,92.00
2023-01-22T17:14:30.138Z,84.82
2023-01-22T17:16:58.006Z,82.82
2023-01-22T17:19:24.493Z,79.00
2023-01-22T17:21:53.929Z,79.38
2023-01-22T17:24:21.208Z,82.97
2023-01-22T17:26:52.005Z,86.03
2023-01-22T17:29:19.157Z,85.68
2023-01-22T17:31:45.853Z,89.60
2023-01-22T17:34:12.507Z,80.78
2023-01-22T17:36:42.283Z,77.00
2023-01-22T17:39:15.162Z,75.32
2023-01-22T17:41:42.090Z,76.78
2023-01-22T17:44:08.440Z,66.47
2023-01-22T17:46:35.262Z,69.10
2023-01-22T17:49:02.672Z,62.90
2023-01-22T17:51:29.565Z,67.25
2023-01-22T17:53:57.837Z,79.03
2023-01-22T17:56:27.091Z,62.55
2023-01-22T17:58:59.492Z,69.28
2023-01-22T18:01:28.371Z,66.38
2023-01-22T18:03:59.911Z,58.17
2023-01-22T18:06:26.858Z,65.25
2023-01-22T18:08:53.761Z,65.15
2023-01-22T18:11:23.583Z,70.50
2023-01-22T18:13:50.463Z,70.25
2023-01-22T18:16:19.209Z,69.70
2023-01-22T18:18:50.545Z,61.03
2023-01-22T18:21:19.144Z,71.43
2023-01-22T18:23:46.695Z,65.40
2023-01-22T18:26:14.698Z,60.55
2023-01-22T18:28:41.264Z,56.10
2023-01-22T18:31:13.590Z,53.80
2023-01-22T18:33:41.368Z,55.33
2023-01-22T18:36:14.991Z,52.50
2023-01-22T18:38:41.601Z,50.40
2023-01-22T18:41:14.314Z,54.38
2023-01-22T18:43:43.873Z,55.55
2023-01-22T18:46:12.943Z,50.45
2023-01-22T18:48:40.932Z,48.90
2023-01-22T18:51:09.766Z,45.30
2023-01-22T18:53:36.906Z,44.38
2023-01-22T18:56:05.561Z,41.80
2023-01-22T18:58:31.966Z,45.38
2023-01-22T19:00:59.965Z,42.92
2023-01-22T19:03:26.870Z,47.40
2023-01-22T19:05:53.233Z,45.08
2023-01-22T19:08:19.528Z,41.80
2023-01-22T19:10:45.950Z,43.45
2023-01-22T19:13:13.027Z,43.28
2023-01-22T19:15:39.386Z,42.47
2023-01-22T19:18:05.776Z,43.47
2023-01-22T19:20:38.492Z,44.03
2023-01-22T19:23:05.740Z,54.25
2023-01-22T19:25:32.322Z,46.72
2023-01-22T19:27:58.628Z,50.83
2023-01-22T19:30:24.933Z,54.33
2023-01-22T19:32:55.472Z,55.28
2023-01-22T19:35:21.947Z,50.58
2023-01-22T19:37:48.279Z,57.80
2023-01-22T19:40:14.652Z,64.30
2023-01-22T19:42:40.949Z,78.40
2023-01-22T19:45:07.632Z,65.40
2023-01-22T19:47:33.928Z,71.40
2023-01-22T19:50:00.244Z,69.78
2023-01-22T19:52:26.548Z,66.30
2023-01-22T19:54:52.979Z,71.93
2023-01-22T19:57:19.286Z,74.35
2023-01-22T19:59:45.587Z,81.00
2023-01-22T20:02:13.987Z,67.72
2023-01-22T20:04:40.661Z,69.70
2023-01-22T20:07:06.988Z,68.30
2023-01-22T20:09:34.893Z,69.40
2023-01-22T20:12:01.230Z,64.90
2023-01-22T20:14:35.095Z,60.92
2023-01-22T20:17:02.558Z,49.73
2023-01-22T20:19:29.329Z,64.07
2023-01-22T20:21:55.824Z,63.42
2023-01-22T20:24:22.171Z,54.90
2023-01-22T20:26:48.484Z,56.45
2023-01-22T20:29:14.790Z,61.05
2023-01-22T20:31:41.220Z,62.35
2023-01-22T20:34:07.680Z,60.67
2023-01-22T20:36:33.983Z,62.17
2023-01-22T20:39:00.282Z,58.20
2023-01-22T20:41:26.607Z,57.80
2023-01-22T20:43:53.863Z,51.97
2023-01-22T20:46:23.080Z,53.85
2023-01-22T20:48:50.313Z,52.65
2023-01-22T20:51:19.410Z,51.75
2023-01-22T20:53:47.092Z,61.88
2023-01-22T20:56:21.535Z,53.97
2023-01-22T20:58:58.552Z,51.10
2023-01-22T21:01:25.778Z,53.05
2023-01-22T21:03:52.277Z,56.72
2023-01-22T21:06:20.053Z,57.08
2023-01-22T21:08:53.154Z,59.58
2023-01-22T21:11:20.880Z,59.33
2023-01-22T21:13:48.797Z,66.90
2023-01-22T21:16:19.898Z,69.72
2023-01-22T21:18:46.270Z,73.80
2023-01-22T21:21:17.748Z,69.43
2023-01-22T21:23:46.197Z,77.05
2023-01-22T21:26:14.460Z,76.63
2023-01-22T21:28:40.976Z,66.95
2023-01-22T21:31:07.315Z,78.45
2023-01-22T21:33:33.907Z,78.45
2023-01-22T21:36:00.275Z,76.20
2023-01-22T21:38:26.722Z,77.13
2023-01-22T21:40:53.060Z,77.22
2023-01-22T21:43:19.373Z,71.95
2023-01-22T21:45:45.685Z,69.75
2023-01-22T21:48:12.029Z,70.72
2023-01-22T21:50:39.987Z,67.97
2023-01-22T21:53:07.095Z,67.40
2023-01-22T21:55:33.443Z,64.43
2023-01-22T21:57:59.793Z,61.05
2023-01-22T22:00:26.101Z,63.88
2023-01-22T22:02:52.420Z,65.93
2023-01-22T22:05:18.795Z,58.17
2023-01-22T22:07:45.171Z,62.47
2023-01-22T22:10:12.097Z,63.95
2023-01-22T22:12:39.355Z,62.53
2023-01-22T22:15:06.474Z,55.95
2023-01-22T22:17:32.831Z,57.80
2023-01-22T22:19:59.146Z,53.78
2023-01-22T22:22:25.520Z,56.15
2023-01-22T22:24:51.838Z,51.55
2023-01-22T22:27:18.147Z,52.92
2023-01-22T22:29:44.497Z,57.65
2023-01-22T22:32:10.920Z,53.50
2023-01-22T22:34:37.243Z,57.67
2023-01-22T22:37:03.548Z,57.88
2023-01-22T22:39:29.886Z,56.08
2023-01-22T22:41:56.214Z,50.47
2023-01-22T22:44:22.532Z,50.28
2023-01-22T22:46:48.874Z,50.83
2023-01-22T22:49:15.211Z,58.85
2023-01-22T22:51:43.046Z,50.83
2023-01-22T22:54:14.785Z,48.85
2023-01-22T22:56:41.090Z,49.15
2023-01-22T22:59:07.500Z,48.17
2023-01-22T23:01:33.946Z,53.25
2023-01-22T23:04:01.035Z,47.95
2023-01-22T23:06:30.275Z,54.90
2023-01-22T23:08:57.828Z,47.88
2023-01-22T23:11:29.491Z,46.22
2023-01-22T23:13:56.607Z,47.40
2023-01-22T23:16:23.018Z,54.70
2023-01-22T23:18:51.532Z,51.55
2023-01-22T23:21:20.764Z,48.00
2023-01-22T23:23:47.523Z,43.70
2023-01-22T23:26:22.963Z,44.63
2023-01-22T23:28:49.719Z,49.53
2023-01-22T23:31:17.480Z,53.35
2023-01-22T23:33:43.902Z,51.83
2023-01-22T23:36:12.520Z,52.35
2023-01-22T23:38:39.522Z,56.00
2023-01-22T23:41:07.763Z,55.40
2023-01-22T23:43:34.731Z,49.38
2023-01-22T23:46:02.030Z,46.88
2023-01-22T23:48:28.364Z,47.67
2023-01-22T23:50:54.695Z,51.40
2023-01-22T23:53:22.205Z,52.13
2023-01-22T23:55:48.915Z,54.08
2023-01-22T23:58:15.519Z,52.83
